Time;durP1;ratioP1;P1;durP2;ratioP2;P2;SDS_P1;SDS_P2;PMS_P1;PMS_P2;Temp;Humidity;BMP_temperature;BMP_pressure;BME280_temperature;BME280_humidity;BME280_pressure;Samples;Min_cycle;Max_cycle;Signal;HPM_P1;HPM_P2
2023/03/31 00:00:25;;;;;;;10.82;2.15;;;;;;;8.75;100.00;100190.88;4872879;29;20052;-73
2023/03/31 00:02:52;;;;;;;17.33;2.80;;;;;;;8.73;100.00;100192.72;4851451;29;20732;-73
2023/03/31 00:05:20;;;;;;;17.55;2.72;;;;;;;8.73;100.00;100184.81;4871132;29;20067;-72
2023/03/31 00:07:47;;;;;;;10.07;2.22;;;;;;;8.72;100.00;100174.31;4866216;29;20178;-73
2023/03/31 00:10:13;;;;;;;13.38;2.42;;;;;;;8.69;100.00;100163.00;4866502;29;20048;-73
2023/03/31 00:12:39;;;;;;;8.32;1.83;;;;;;;8.68;100.00;100157.78;4852171;29;20075;-73
2023/03/31 00:15:05;;;;;;;13.27;2.38;;;;;;;8.67;100.00;100159.56;4851141;29;20139;-73
2023/03/31 00:17:31;;;;;;;15.45;3.00;;;;;;;8.65;100.00;100164.06;4870544;29;20523;-73
2023/03/31 00:19:59;;;;;;;18.85;2.75;;;;;;;8.62;100.00;100152.81;4852237;29;20045;-73
2023/03/31 00:22:26;;;;;;;16.45;2.22;;;;;;;8.59;100.00;100152.94;4850698;29;20058;-73
2023/03/31 00:24:52;;;;;;;13.32;2.13;;;;;;;8.54;100.00;100143.47;4869313;29;20052;-73
2023/03/31 00:27:18;;;;;;;8.07;2.13;;;;;;;8.51;100.00;100135.69;4854252;29;20132;-73
2023/03/31 00:29:44;;;;;;;14.52;2.55;;;;;;;8.47;100.00;100139.38;4835754;29;21612;-73
2023/03/31 00:32:10;;;;;;;10.13;2.22;;;;;;;8.44;100.00;100136.88;4873096;29;20056;-73
2023/03/31 00:34:36;;;;;;;15.20;3.47;;;;;;;8.40;100.00;100127.44;4854600;29;20399;-73
2023/03/31 00:37:02;;;;;;;13.68;2.42;;;;;;;8.36;100.00;100126.72;4864061;29;20045;-73
2023/03/31 00:39:30;;;;;;;11.32;2.03;;;;;;;8.34;100.00;100122.44;4852372;29;20053;-72
2023/03/31 00:41:57;;;;;;;11.40;2.55;;;;;;;8.30;100.00;100108.53;4851462;29;21202;-73
2023/03/31 00:44:28;;;;;;;15.77;3.03;;;;;;;8.28;100.00;100107.75;4832590;29;20511;-73
2023/03/31 00:47:08;;;;;;;14.35;2.45;;;;;;;8.24;100.00;100098.28;4853710;29;21139;-73
2023/03/31 00:49:39;;;;;;;17.77;2.47;;;;;;;8.22;100.00;100103.63;4852051;29;20052;-73
2023/03/31 00:52:21;;;;;;;10.73;2.28;;;;;;;8.19;100.00;100103.78;4876718;29;20066;-73
2023/03/31 00:54:49;;;;;;;11.98;2.63;;;;;;;8.15;100.00;100097.81;4854985;29;20050;-73
2023/03/31 00:57:15;;;;;;;11.18;2.83;;;;;;;8.13;100.00;100091.72;4886986;29;20063;-72
2023/03/31 00:59:52;;;;;;;9.50;2.40;;;;;;;8.10;100.00;100086.59;4884121;29;20039;-73
2023/03/31 01:02:21;;;;;;;12.98;2.28;;;;;;;8.09;100.00;100082.28;4884033;29;20044;-72
2023/03/31 01:04:53;;;;;;;12.27;2.08;;;;;;;8.08;100.00;100079.69;4854715;29;20052;-73
2023/03/31 01:07:34;;;;;;;13.02;2.67;;;;;;;8.07;100.00;100072.72;4869142;29;20040;-73
2023/03/31 01:10:03;;;;;;;12.10;2.30;;;;;;;8.05;100.00;100071.94;4886413;29;20481;-73
2023/03/31 01:12:31;;;;;;;8.27;2.53;;;;;;;8.04;100.00;100068.44;4883208;29;20044;-73
2023/03/31 01:14:56;;;;;;;7.22;1.90;;;;;;;8.05;100.00;100064.03;4885345;29;20135;-73
2023/03/31 01:17:23;;;;;;;12.52;2.17;;;;;;;8.08;100.00;100058.59;4858897;29;20435;-73
2023/03/31 01:20:11;;;;;;;17.73;2.45;;;;;;;8.06;100.00;100045.50;4871384;29;20067;-72
2023/03/31 01:23:05;;;;;;;12.23;2.58;;;;;;;8.08;100.00;100037.50;4891192;29;20103;-73
2023/03/31 01:25:53;;;;;;;12.23;2.38;;;;;;;8.10;100.00;100035.66;4890116;29;20484;-72
2023/03/31 01:28:24;;;;;;;7.55;1.90;;;;;;;8.12;100.00;100036.44;4871419;29;20139;-73
2023/03/31 01:31:25;;;;;;;14.65;2.15;;;;;;;8.15;100.00;100025.75;4890293;29;20226;-73
2023/03/31 01:34:15;;;;;;;11.65;2.05;;;;;;;8.17;100.00;100023.88;4858763;29;20044;-73
2023/03/31 01:36:56;;;;;;;15.50;2.20;;;;;;;8.21;100.00;100016.66;4874470;29;20507;-73
2023/03/31 01:39:25;;;;;;;11.27;2.38;;;;;;;8.23;100.00;100013.03;4870826;29;20040;-73
2023/03/31 01:41:56;;;;;;;17.73;2.45;;;;;;;8.27;100.00;100001.41;4890136;29;20044;-71
2023/03/31 01:44:31;;;;;;;9.57;2.70;;;;;;;8.31;100.00;100009.16;4873141;29;20099;-72
2023/03/31 01:47:24;;;;;;;10.35;1.98;;;;;;;8.34;100.00;100001.13;4873241;29;20488;-72
2023/03/31 01:50:03;;;;;;;10.52;1.83;;;;;;;8.36;100.00;99999.25;4877112;29;20048;-72
2023/03/31 01:52:49;;;;;;;10.45;2.05;;;;;;;8.41;100.00;99995.44;4896689;29;20048;-72
2023/03/31 01:55:23;;;;;;;6.40;1.70;;;;;;;8.46;100.00;99986.44;4871660;29;20167;-72
2023/03/31 01:58:17;;;;;;;12.95;2.17;;;;;;;8.50;100.00;99985.38;4885372;29;20111;-72
2023/03/31 02:00:50;;;;;;;10.85;2.22;;;;;;;8.53;100.00;99975.56;4858728;29;20048;-71
2023/03/31 02:03:44;;;;;;;11.45;2.70;;;;;;;8.54;100.00;99971.13;4871981;29;20558;-72
2023/03/31 02:06:15;;;;;;;11.07;2.20;;;;;;;8.54;100.00;99961.44;4867505;29;20460;-72
2023/03/31 02:08:45;;;;;;;13.07;2.40;;;;;;;8.55;100.00;99960.50;4853379;29;20052;-72
2023/03/31 02:11:11;;;;;;;8.55;1.67;;;;;;;8.55;100.00;99960.50;4868358;29;20040;-72
2023/03/31 02:13:40;;;;;;;10.00;1.85;;;;;;;8.58;100.00;99953.34;4862355;29;20071;-72
2023/03/31 02:16:09;;;;;;;8.05;1.55;;;;;;;8.58;100.00;99950.72;4865153;29;20056;-72
2023/03/31 02:18:37;;;;;;;10.55;1.95;;;;;;;8.58;100.00;99945.44;4886267;29;20095;-72
2023/03/31 02:21:05;;;;;;;11.43;1.75;;;;;;;8.57;100.00;99941.97;4862735;29;20178;-72
2023/03/31 02:23:37;;;;;;;8.95;1.85;;;;;;;8.59;100.00;99941.84;4884996;29;20099;-72
2023/03/31 02:26:11;;;;;;;10.33;2.70;;;;;;;8.58;100.00;99942.78;4879910;29;20679;-72
2023/03/31 02:28:38;;;;;;;14.77;2.38;;;;;;;8.55;100.00;99936.75;4885815;29;20309;-72
2023/03/31 02:31:10;;;;;;;8.35;1.92;;;;;;;8.52;100.00;99936.91;4882054;29;20107;-72
2023/03/31 02:33:36;;;;;;;8.07;2.10;;;;;;;8.47;100.00;99928.34;4886412;29;20040;-72
2023/03/31 02:36:02;;;;;;;8.70;1.90;;;;;;;8.42;100.00;99920.69;4868009;29;20075;-72
2023/03/31 02:38:30;;;;;;;8.63;1.80;;;;;;;8.39;100.00;99914.72;4882298;29;21660;-72
2023/03/31 02:40:55;;;;;;;8.82;2.10;;;;;;;8.37;100.00;99906.00;4847218;29;20051;-72
2023/03/31 02:43:21;;;;;;;9.90;2.20;;;;;;;8.34;100.00;99901.72;4866248;29;20801;-73
2023/03/31 02:45:48;;;;;;;11.80;1.70;;;;;;;8.33;100.00;99897.38;4867913;29;20178;-72
2023/03/31 02:48:23;;;;;;;8.70;1.80;;;;;;;8.32;100.00;99886.94;4867804;29;20128;-72
2023/03/31 02:51:07;;;;;;;13.77;2.03;;;;;;;8.29;100.00;99888.78;4884205;29;20369;-72
2023/03/31 02:53:57;;;;;;;15.57;2.25;;;;;;;8.27;100.00;99880.09;4883550;29;20413;-72
2023/03/31 02:56:26;;;;;;;11.02;1.85;;;;;;;8.28;100.00;99881.81;4881961;29;20056;-72
2023/03/31 02:59:01;;;;;;;9.25;1.83;;;;;;;8.28;100.00;99875.66;4884443;29;20043;-72
2023/03/31 03:01:40;;;;;;;6.07;1.40;;;;;;;8.29;100.00;99880.03;4884767;29;20443;-72
2023/03/31 03:04:33;;;;;;;7.78;2.20;;;;;;;8.29;100.00;99875.59;4884186;29;20040;-72
2023/03/31 03:07:05;;;;;;;;;;;;;;;8.31;100.00;99864.97;4883974;29;20055;-73
2023/03/31 03:09:51;;;;;;;12.60;1.88;;;;;;;8.32;100.00;99857.94;4880881;29;19923;-73
2023/03/31 03:12:27;;;;;;;15.07;2.10;;;;;;;8.32;100.00;99863.22;4852626;29;20051;-73
2023/03/31 03:15:22;;;;;;;13.88;2.20;;;;;;;8.32;100.00;99852.66;4881284;29;20044;-73
2023/03/31 03:17:48;;;;;;;12.20;2.28;;;;;;;8.32;100.00;99847.38;4879171;29;20052;-73
2023/03/31 03:20:15;;;;;;;13.32;2.53;;;;;;;8.32;100.00;99840.31;4850260;29;20044;-72
2023/03/31 03:22:41;;;;;;;6.47;1.60;;;;;;;8.33;100.00;99835.91;4883566;29;20040;-73
2023/03/31 03:25:09;;;;;;;7.65;2.20;;;;;;;8.33;100.00;99834.09;4868142;29;20088;-73
2023/03/31 03:27:35;;;;;;;11.25;2.15;;;;;;;8.33;100.00;99820.91;4870807;29;20040;-73
2023/03/31 03:30:05;;;;;;;8.27;2.15;;;;;;;8.35;100.00;99818.19;4887974;29;20392;-73
2023/03/31 03:32:32;;;;;;;7.80;1.88;;;;;;;8.33;100.00;99810.34;4887903;29;20421;-72
2023/03/31 03:34:59;;;;;;;7.82;2.00;;;;;;;8.32;100.00;99803.38;4887905;29;20373;-72
2023/03/31 03:37:25;;;;;;;7.68;2.35;;;;;;;8.31;100.00;99796.41;4879827;29;20045;-72
2023/03/31 03:39:50;;;;;;;9.73;3.17;;;;;;;8.32;100.00;99797.28;4867177;29;20445;-72
2023/03/31 03:42:16;;;;;;;10.02;3.05;;;;;;;8.32;100.00;99784.09;4882581;29;20044;-72
2023/03/31 03:44:41;;;;;;;7.07;2.75;;;;;;;8.34;100.00;99779.56;4887480;29;20488;-73
2023/03/31 03:47:07;;;;;;;9.55;3.28;;;;;;;8.34;100.00;99774.31;4887337;29;20057;-73
2023/03/31 03:49:32;;;;;;;11.98;3.20;;;;;;;8.33;100.00;99765.53;4866219;29;20040;-72
2023/03/31 03:51:58;;;;;;;11.60;3.38;;;;;;;8.33;100.00;99768.16;4888494;29;20102;-73
2023/03/31 03:54:23;;;;;;;13.05;3.80;;;;;;;8.35;100.00;99754.91;4860688;29;20059;-73
2023/03/31 03:56:49;;;;;;;8.90;3.05;;;;;;;8.34;100.00;99747.94;4883202;29;20052;-73
2023/03/31 03:59:14;;;;;;;7.05;3.10;;;;;;;8.35;100.00;99744.34;4887363;29;20105;-73
2023/03/31 04:01:40;;;;;;;9.57;3.50;;;;;;;8.36;100.00;99740.78;4886955;29;20060;-73
2023/03/31 04:04:05;;;;;;;10.35;3.47;;;;;;;8.37;100.00;99737.19;4870088;29;20044;-73
2023/03/31 04:06:31;;;;;;;7.88;3.63;;;;;;;8.38;100.00;99729.22;4872569;29;20136;-73
2023/03/31 04:08:56;;;;;;;10.20;3.40;;;;;;;8.38;100.00;99728.34;4855594;29;20076;-73
2023/03/31 04:11:22;;;;;;;8.98;3.90;;;;;;;8.40;100.00;99721.22;4884208;29;20044;-73
2023/03/31 04:13:48;;;;;;;8.05;3.88;;;;;;;8.41;100.00;99715.00;4883036;29;20058;-73
2023/03/31 04:16:13;;;;;;;15.90;4.20;;;;;;;8.41;100.00;99712.38;4886804;29;20143;-72
2023/03/31 04:18:42;;;;;;;6.35;3.42;;;;;;;8.39;100.00;99704.53;4885913;29;20052;-73
2023/03/31 04:21:11;;;;;;;6.53;3.50;;;;;;;8.38;100.00;99705.47;4854307;29;20394;-72
2023/03/31 04:23:41;;;;;;;9.73;3.63;;;;;;;8.38;100.00;99700.19;4858861;29;20059;-72
2023/03/31 04:26:10;;;;;;;7.32;4.10;;;;;;;8.38;100.00;99692.28;4853408;29;20043;-73
2023/03/31 04:28:37;;;;;;;10.55;4.25;;;;;;;8.38;100.00;99683.50;4873658;29;20134;-73
2023/03/31 04:31:05;;;;;;;11.63;3.88;;;;;;;8.39;100.00;99685.25;4870133;29;20040;-73
2023/03/31 04:33:32;;;;;;;11.20;4.63;;;;;;;8.38;100.00;99676.47;4883730;29;20079;-73
2023/03/31 04:36:05;;;;;;;12.98;4.03;;;;;;;8.39;100.00;99683.44;4887095;29;20044;-73
2023/03/31 04:38:32;;;;;;;8.73;3.55;;;;;;;8.39;100.00;99661.50;4857001;29;21690;-73
2023/03/31 04:40:57;;;;;;;9.90;4.00;;;;;;;8.39;100.00;99661.50;4887237;29;20120;-73
2023/03/31 04:43:23;;;;;;;11.75;4.07;;;;;;;8.38;100.00;99655.38;4883417;29;20224;-73
2023/03/31 04:45:49;;;;;;;12.88;3.83;;;;;;;8.38;100.00;99651.88;4871747;29;20052;-73
2023/03/31 04:48:15;;;;;;;8.60;4.45;;;;;;;8.38;100.00;99644.81;4888186;29;20522;-73
2023/03/31 04:50:40;;;;;;;12.25;4.32;;;;;;;8.38;100.00;99641.31;4883739;29;21685;-73
2023/03/31 04:53:06;;;;;;;13.52;4.50;;;;;;;8.38;100.00;99630.75;4886917;29;20056;-73
2023/03/31 04:55:31;;;;;;;12.10;4.47;;;;;;;8.38;100.00;99630.75;4886957;29;20055;-73
2023/03/31 04:57:57;;;;;;;11.02;4.80;;;;;;;8.38;100.00;99623.72;4841659;29;20787;-72
2023/03/31 05:00:23;;;;;;;12.23;5.10;;;;;;;8.39;100.00;99614.88;4865270;29;20132;-72
2023/03/31 05:02:49;;;;;;;14.70;5.57;;;;;;;8.40;100.00;99618.38;4867766;29;20143;-73
2023/03/31 05:05:14;;;;;;;18.65;6.65;;;;;;;8.39;100.00;99614.88;4868160;29;20056;-73
2023/03/31 05:07:40;;;;;;;14.23;5.75;;;;;;;8.40;100.00;99608.66;4864516;29;20048;-73
2023/03/31 05:10:06;;;;;;;14.65;4.97;;;;;;;8.43;100.00;99610.28;4884976;29;20040;-72
2023/03/31 05:12:35;;;;;;;9.90;4.45;;;;;;;8.42;100.00;99608.56;4880678;29;20393;-73
2023/03/31 05:15:02;;;;;;;12.13;4.88;;;;;;;8.42;100.00;99587.47;4886507;29;20056;-73
2023/03/31 05:17:31;;;;;;;11.38;4.68;;;;;;;8.42;100.00;99588.34;4885358;29;20047;-73
2023/03/31 05:19:57;;;;;;;11.43;4.65;;;;;;;8.43;100.00;99581.25;4883303;29;20040;-73
2023/03/31 05:22:22;;;;;;;11.48;5.10;;;;;;;8.42;100.00;99582.19;4877258;29;20055;-73
2023/03/31 05:24:48;;;;;;;12.07;4.97;;;;;;;8.44;100.00;99575.03;4866017;29;20929;-73
2023/03/31 05:27:14;;;;;;;11.38;4.65;;;;;;;8.43;100.00;99565.44;4866931;29;20527;-73
2023/03/31 05:29:40;;;;;;;12.27;4.35;;;;;;;8.42;100.00;99561.97;4885678;29;20870;-72
2023/03/31 05:32:05;;;;;;;15.30;4.93;;;;;;;8.43;100.00;99565.44;4883881;29;20044;-73
2023/03/31 05:34:31;;;;;;;13.93;5.03;;;;;;;8.43;100.00;99555.75;4871892;29;20052;-73
2023/03/31 05:36:57;;;;;;;11.13;5.22;;;;;;;8.43;100.00;99547.84;4886436;29;20141;-72
2023/03/31 05:39:23;;;;;;;12.50;5.05;;;;;;;8.44;100.00;99546.03;4884444;29;20135;-72
2023/03/31 05:41:49;;;;;;;11.35;5.60;;;;;;;8.45;100.00;99545.13;4867536;29;20343;-72
2023/03/31 05:44:14;;;;;;;13.30;5.78;;;;;;;8.46;100.00;99541.53;4882907;29;20051;-72
2023/03/31 05:46:40;;;;;;;15.02;5.80;;;;;;;8.47;100.00;99529.19;4884560;29;20507;-72
2023/03/31 05:49:06;;;;;;;10.50;5.35;;;;;;;8.47;100.00;99529.19;4883014;29;20087;-72
2023/03/31 05:51:32;;;;;;;14.02;5.32;;;;;;;8.47;100.00;99527.41;4881903;29;20424;-72
2023/03/31 05:53:57;;;;;;;12.07;5.13;;;;;;;8.49;100.00;99524.69;4881362;29;20048;-72
2023/03/31 05:56:22;;;;;;;12.70;5.30;;;;;;;8.47;100.00;99518.63;4867981;29;20500;-72
2023/03/31 05:58:48;;;;;;;9.13;5.15;;;;;;;8.48;100.00;99513.28;4882048;29;20053;-72
2023/03/31 06:01:18;;;;;;;11.82;5.85;;;;;;;8.49;100.00;99511.50;4857910;29;20146;-72
2023/03/31 06:03:45;;;;;;;11.90;5.13;;;;;;;8.49;100.00;99509.69;4882477;29;20357;-72
2023/03/31 06:06:15;;;;;;;8.93;4.60;;;;;;;8.50;100.00;99500.00;4886932;29;20060;-72
2023/03/31 06:08:45;;;;;;;11.63;4.60;;;;;;;8.50;100.00;99497.38;4865635;29;20504;-73
2023/03/31 06:11:15;;;;;;;8.80;4.70;;;;;;;8.49;100.00;99487.75;4870952;29;20072;-72
2023/03/31 06:13:41;;;;;;;7.63;4.38;;;;;;;8.49;100.00;99493.03;4884673;29;20357;-72
2023/03/31 06:16:08;;;;;;;9.32;4.53;;;;;;;8.49;100.00;99485.13;4881106;29;20051;-72
2023/03/31 06:18:35;;;;;;;6.82;4.43;;;;;;;8.48;100.00;99486.91;4872661;29;21296;-72
2023/03/31 06:21:01;;;;;;;10.00;4.50;;;;;;;8.48;100.00;99480.75;4868586;29;20416;-73
2023/03/31 06:23:27;;;;;;;12.60;4.25;;;;;;;8.47;100.00;99479.94;4867971;29;20531;-73
2023/03/31 06:25:52;;;;;;;9.98;4.57;;;;;;;8.47;100.00;99473.78;4886359;29;21539;-72
2023/03/31 06:28:19;;;;;;;9.43;4.00;;;;;;;8.47;100.00;99468.50;4869845;29;20504;-72
2023/03/31 06:30:45;;;;;;;8.65;4.20;;;;;;;8.46;100.00;99470.31;4870923;29;20123;-72
2023/03/31 06:33:10;;;;;;;11.35;4.40;;;;;;;8.43;100.00;99463.44;4885215;29;20055;-72
2023/03/31 06:35:37;;;;;;;8.02;4.20;;;;;;;8.46;100.00;99458.91;4886312;29;20385;-72
2023/03/31 06:38:03;;;;;;;5.43;3.63;;;;;;;8.45;100.00;99460.72;4888703;29;20048;-72
2023/03/31 06:40:29;;;;;;;11.32;4.43;;;;;;;8.42;100.00;99461.72;4887976;29;20067;-72
2023/03/31 06:42:54;;;;;;;8.52;3.60;;;;;;;8.43;100.00;99458.16;4866483;29;20043;-72
2023/03/31 06:45:20;;;;;;;8.85;3.35;;;;;;;8.42;100.00;99452.97;4887384;29;20052;-72
2023/03/31 06:47:46;;;;;;;10.65;4.05;;;;;;;8.42;100.00;99450.31;4886875;29;20048;-72
2023/03/31 06:50:11;;;;;;;10.18;3.72;;;;;;;8.42;100.00;99445.03;4886392;29;20616;-72
2023/03/31 06:52:39;;;;;;;10.63;3.88;;;;;;;8.41;100.00;99444.19;4868490;29;20047;-72
2023/03/31 06:55:06;;;;;;;6.03;3.28;;;;;;;8.39;100.00;99432.88;4871451;29;20056;-72
2023/03/31 06:57:32;;;;;;;8.48;2.72;;;;;;;8.39;100.00;99424.97;4882141;29;20056;-72
2023/03/31 06:59:58;;;;;;;5.45;2.72;;;;;;;8.38;100.00;99433.84;4871253;29;20142;-72
2023/03/31 07:02:24;;;;;;;6.47;2.80;;;;;;;8.38;100.00;99430.34;4883294;29;20052;-72
2023/03/31 07:04:49;;;;;;;5.13;2.53;;;;;;;8.36;100.00;99419.91;4888464;29;20056;-72
2023/03/31 07:07:15;;;;;;;7.88;2.53;;;;;;;8.34;100.00;99413.84;4884162;29;20052;-72
2023/03/31 07:09:41;;;;;;;6.25;2.90;;;;;;;8.34;100.00;99413.84;4876792;29;20534;-72
2023/03/31 07:12:06;;;;;;;5.82;2.42;;;;;;;8.32;100.00;99409.63;4886298;29;20055;-72
2023/03/31 07:14:32;;;;;;;6.53;2.22;;;;;;;8.32;100.00;99404.34;4884956;29;20607;-72
2023/03/31 07:16:58;;;;;;;4.68;1.92;;;;;;;8.30;100.00;99407.06;4882607;29;20044;-72
2023/03/31 07:19:23;;;;;;;4.32;1.77;;;;;;;8.28;100.00;99395.75;4886718;29;20054;-76
2023/03/31 07:21:49;;;;;;;5.10;2.28;;;;;;;8.27;100.00;99392.28;4887852;29;20399;-73
2023/03/31 07:24:15;;;;;;;4.32;2.10;;;;;;;8.26;100.00;99390.59;4865322;29;20271;-72
2023/03/31 07:26:40;;;;;;;4.93;1.83;;;;;;;8.26;100.00;99398.50;4887271;29;20048;-72
2023/03/31 07:29:06;;;;;;;2.50;1.75;;;;;;;8.27;100.00;99389.63;4868332;29;20063;-72
2023/03/31 07:31:31;;;;;;;5.63;2.25;;;;;;;8.28;100.00;99388.69;4881027;29;20051;-73
2023/03/31 07:33:57;;;;;;;4.03;2.08;;;;;;;8.31;100.00;99378.91;4884577;29;20059;-73
2023/03/31 07:36:22;;;;;;;5.93;2.35;;;;;;;8.32;100.00;99384.09;4887081;29;20036;-72
2023/03/31 07:38:48;;;;;;;3.75;2.63;;;;;;;8.34;100.00;99376.09;4885091;29;20515;-72
2023/03/31 07:41:19;;;;;;;5.78;2.33;;;;;;;8.36;100.00;99376.84;4882339;29;20047;-72
2023/03/31 07:43:45;;;;;;;5.03;2.63;;;;;;;8.37;100.00;99375.91;4886935;29;20491;-73
2023/03/31 07:46:19;;;;;;;5.53;3.13;;;;;;;8.38;100.00;99373.19;4866327;29;20867;-73
2023/03/31 07:48:45;;;;;;;5.10;3.25;;;;;;;8.42;100.00;99376.47;4878720;29;20052;-73
2023/03/31 07:51:15;;;;;;;7.38;3.58;;;;;;;8.43;100.00;99362.34;4882146;29;20054;-71
2023/03/31 07:53:41;;;;;;;9.13;3.67;;;;;;;8.48;100.00;99365.56;4882231;29;20052;-73
2023/03/31 07:56:06;;;;;;;6.60;4.10;;;;;;;8.51;100.00;99356.63;4884155;29;20114;-73
2023/03/31 07:58:32;;;;;;;6.50;4.15;;;;;;;8.52;100.00;99356.56;4881531;29;20075;-72
2023/03/31 08:00:58;;;;;;;10.25;4.10;;;;;;;8.55;100.00;99356.38;4883068;29;20059;-71
2023/03/31 08:03:24;;;;;;;9.23;3.95;;;;;;;8.56;100.00;99358.06;4861119;29;20487;-71
2023/03/31 08:05:51;;;;;;;9.25;4.50;;;;;;;8.60;100.00;99352.59;4868926;29;20347;-71
2023/03/31 08:08:16;;;;;;;7.85;3.78;;;;;;;8.61;100.00;99344.56;4885551;29;20087;-71
2023/03/31 08:10:42;;;;;;;8.23;4.35;;;;;;;8.63;100.00;99342.72;4867702;29;20134;-73
2023/03/31 08:13:07;;;;;;;8.13;3.88;;;;;;;8.66;100.00;99342.50;4892580;29;20139;-73
2023/03/31 08:15:33;;;;;;;7.50;4.00;;;;;;;8.71;100.00;99344.03;4890093;29;20044;-71
2023/03/31 08:17:58;;;;;;;8.68;3.67;;;;;;;8.76;100.00;99340.16;4883145;29;20059;-73
2023/03/31 08:20:24;;;;;;;11.43;7.68;;;;;;;8.81;100.00;99339.88;4894252;29;20574;-73
2023/03/31 08:22:50;;;;;;;9.02;4.22;;;;;;;8.86;100.00;99342.22;4895870;29;20048;-73
2023/03/31 08:25:16;;;;;;;7.00;3.72;;;;;;;8.90;100.00;99349.00;4864033;29;20538;-73
2023/03/31 08:27:41;;;;;;;9.77;3.85;;;;;;;8.93;100.00;99339.09;4880072;29;20051;-73
2023/03/31 08:30:09;;;;;;;8.45;3.72;;;;;;;8.99;100.00;99335.22;4897533;29;20044;-72
2023/03/31 08:32:35;;;;;;;8.68;3.70;;;;;;;9.05;100.00;99331.38;4864279;29;20736;-72
2023/03/31 08:35:00;;;;;;;11.10;3.88;;;;;;;9.08;100.00;99331.16;4896371;29;20046;-72
2023/03/31 08:37:30;;;;;;;4.95;3.30;;;;;;;9.12;100.00;99323.88;4895732;29;20219;-72
2023/03/31 08:39:56;;;;;;;8.88;3.65;;;;;;;9.15;100.00;99324.53;4877557;29;20091;-73
2023/03/31 08:42:33;;;;;;;6.55;3.65;;;;;;;9.18;100.00;99315.59;4876477;29;20048;-72
2023/03/31 08:45:37;;;;;;;9.18;3.45;;;;;;;9.23;100.00;99318.78;4898810;29;20084;-72
2023/03/31 08:48:13;;;;;;;8.27;3.38;;;;;;;9.26;100.00;99326.50;4898748;29;20050;-72
2023/03/31 08:50:46;;;;;;;4.57;2.88;;;;;;;9.31;100.00;99327.06;4879806;29;20050;-73
2023/03/31 08:53:32;;;;;;;;;;;;;;;9.33;100.00;99311.94;4898339;29;20040;-73
2023/03/31 08:55:58;;;;;;;8.10;3.00;;;;;;;9.38;100.00;99322.25;4899128;29;19970;-73
2023/03/31 08:58:26;;;;;;;7.55;3.70;;;;;;;9.43;100.00;99320.13;4864827;29;20047;-73
2023/03/31 09:01:15;;;;;;;10.68;3.40;;;;;;;9.50;100.00;99316.13;4877770;29;20047;-74
2023/03/31 09:04:06;;;;;;;10.25;4.68;;;;;;;9.60;100.00;99321.66;4865484;29;20060;-73
2023/03/31 09:06:31;;;;;;;17.52;7.63;;;;;;;9.67;100.00;99310.69;4895320;29;20114;-73
2023/03/31 09:09:01;;;;;;;6.50;4.63;;;;;;;9.70;100.00;99313.16;4881339;29;20060;-73
2023/03/31 09:11:42;;;;;;;14.80;4.85;;;;;;;9.75;100.00;99303.94;4900504;29;20040;-73
2023/03/31 09:14:19;;;;;;;8.68;4.43;;;;;;;9.81;100.00;99302.69;4884107;29;20051;-71
2023/03/31 09:16:52;;;;;;;6.00;3.83;;;;;;;9.90;100.00;99301.22;4884611;29;20047;-74
2023/03/31 09:19:29;;;;;;;;;;;;;;;9.92;100.00;99299.34;4900357;29;20122;-71
2023/03/31 09:21:55;;;;;;;6.10;3.13;;;;;;;9.92;100.00;99294.88;4894104;29;20314;-73
2023/03/31 09:24:30;;;;;;;5.55;3.35;;;;;;;9.96;100.00;99302.63;4896575;29;20052;-72
2023/03/31 09:27:14;;;;;;;5.45;2.88;;;;;;;9.91;100.00;99298.50;4880775;29;21465;-72
2023/03/31 09:29:39;;;;;;;6.72;2.80;;;;;;;9.87;100.00;99289.06;4897866;29;20638;-73
2023/03/31 09:32:23;;;;;;;5.05;2.53;;;;;;;9.87;100.00;99296.16;4896943;29;20056;-72
2023/03/31 09:34:56;;;;;;;7.47;2.63;;;;;;;9.88;100.00;99289.91;4881450;29;20059;-72
2023/03/31 09:37:24;;;;;;;6.15;2.78;;;;;;;9.91;100.00;99289.69;4893656;29;20050;-72
2023/03/31 09:39:50;;;;;;;4.43;2.65;;;;;;;9.96;100.00;99284.13;4888578;29;20416;-72
2023/03/31 09:42:18;;;;;;;6.70;2.55;;;;;;;10.00;100.00;99277.66;4881881;29;20045;-72
2023/03/31 09:44:45;;;;;;;6.72;3.13;;;;;;;10.00;100.00;99285.59;4879994;29;20048;-72
2023/03/31 09:47:28;;;;;;;4.80;3.13;;;;;;;10.00;100.00;99285.59;4894831;29;20044;-71
2023/03/31 09:49:53;;;;;;;6.00;2.78;;;;;;;9.97;100.00;99275.25;4874825;29;20393;-72
2023/03/31 09:52:19;;;;;;;4.38;2.72;;;;;;;9.98;100.00;99274.28;4894051;29;20186;-71
2023/03/31 09:54:52;;;;;;;6.25;3.38;;;;;;;9.99;100.00;99271.53;4876101;29;20990;-71
2023/03/31 09:57:27;;;;;;;4.28;2.75;;;;;;;10.01;100.00;99277.56;4893058;29;20051;-72
2023/03/31 09:59:53;;;;;;;3.30;2.70;;;;;;;9.99;100.00;99268.91;4893504;29;20504;-72
2023/03/31 10:02:35;;;;;;;5.25;3.03;;;;;;;9.97;100.00;99265.50;4870213;29;20059;-72
2023/03/31 10:05:03;;;;;;;3.20;2.77;;;;;;;9.98;100.00;99266.34;4895574;29;20685;-72
2023/03/31 10:07:29;;;;;;;4.40;3.03;;;;;;;10.02;100.00;99267.84;4877145;29;20505;-72
2023/03/31 10:09:56;;;;;;;5.88;3.22;;;;;;;10.05;100.00;99268.47;4876506;29;20091;-72
2023/03/31 10:12:25;;;;;;;7.25;3.35;;;;;;;10.07;100.00;99273.66;4873435;29;20142;-72
2023/03/31 10:14:53;;;;;;;6.18;3.58;;;;;;;10.15;100.00;99262.56;4888371;29;20055;-72
2023/03/31 10:17:23;;;;;;;5.63;3.40;;;;;;;10.26;100.00;99259.16;4893565;29;20063;-72
2023/03/31 10:19:56;;;;;;;7.03;3.60;;;;;;;10.33;100.00;99260.41;4890552;29;20054;-72
2023/03/31 10:22:21;;;;;;;4.40;3.20;;;;;;;10.42;100.00;99254.50;4875353;29;20078;-72
2023/03/31 10:24:49;;;;;;;7.28;3.40;;;;;;;10.48;100.00;99257.69;4891413;29;20127;-72
2023/03/31 10:27:26;;;;;;;8.63;3.17;;;;;;;10.55;100.00;99257.16;4872728;29;20052;-73
2023/03/31 10:29:53;;;;;;;6.47;3.63;;;;;;;10.64;100.00;99263.59;4883197;29;20051;-73
2023/03/31 10:32:24;;;;;;;6.82;3.30;;;;;;;10.68;100.00;99251.81;4880090;29;20059;-72
2023/03/31 10:34:50;;;;;;;9.63;3.28;;;;;;;10.74;100.00;99247.91;4861984;29;20052;-72
2023/03/31 10:37:21;;;;;;;6.15;3.33;;;;;;;10.80;100.00;99249.25;4891488;29;20504;-72
2023/03/31 10:39:55;;;;;;;5.05;3.40;;;;;;;10.87;100.00;99245.22;4881190;29;20051;-72
2023/03/31 10:42:21;;;;;;;7.53;3.40;;;;;;;10.97;100.00;99240.09;4883492;29;20055;-71
2023/03/31 10:44:47;;;;;;;9.70;3.40;;;;;;;11.15;100.00;99235.25;4889273;29;20072;-72
2023/03/31 10:47:12;;;;;;;7.78;3.50;;;;;;;11.30;100.00;99235.06;4893694;29;20595;-72
2023/03/31 10:49:40;;;;;;;5.32;2.88;;;;;;;11.37;100.00;99233.66;4897153;29;20048;-72
2023/03/31 10:52:19;;;;;;;6.22;2.90;;;;;;;11.45;100.00;99236.59;4866500;29;20377;-71
2023/03/31 10:54:47;;;;;;;9.43;2.63;;;;;;;11.53;100.00;99233.34;4880044;29;20056;-71
2023/03/31 10:57:14;;;;;;;7.28;2.70;;;;;;;11.62;100.00;99231.81;4895522;29;20507;-72
2023/03/31 10:59:40;;;;;;;6.82;2.50;;;;;;;11.68;100.00;99234.03;4893779;29;20139;-72
2023/03/31 11:02:50;;;;;;;5.78;2.40;;;;;;;11.65;100.00;99234.22;4877383;29;20040;-72
2023/03/31 11:05:30;;;;;;;10.35;2.40;;;;;;;11.76;100.00;99228.97;4893226;29;20054;-72
2023/03/31 11:08:29;;;;;;;8.48;2.10;;;;;;;11.90;100.00;99227.94;4896005;29;20052;-72
2023/03/31 11:11:21;;;;;;;5.45;1.73;;;;;;;11.93;100.00;99222.38;4899455;29;20084;-72
2023/03/31 11:14:07;;;;;;;6.07;1.50;;;;;;;11.99;100.00;99223.69;4871043;29;20229;-72
2023/03/31 11:16:49;;;;;;;2.72;1.30;;;;;;;11.98;100.00;99222.00;4894261;29;20052;-72
2023/03/31 11:19:37;;;;;;;3.85;1.80;;;;;;;12.02;100.00;99223.47;4894270;29;20516;-72
2023/03/31 11:22:13;;;;;;;4.25;1.55;;;;;;;12.09;100.00;99218.56;4878173;29;20531;-72
2023/03/31 11:24:47;;;;;;;4.10;1.50;;;;;;;12.13;100.00;99224.47;4892920;29;20039;-72
2023/03/31 11:27:35;;;;;;;3.90;1.60;;;;;;;12.18;100.00;99223.16;4895568;29;20291;-72
2023/03/31 11:30:21;;;;;;;3.88;1.60;;;;;;;12.14;100.00;99220.88;4889380;29;20043;-73
2023/03/31 11:33:14;;;;;;;5.78;1.90;;;;;;;12.11;100.00;99221.09;4875330;29;20678;-72
2023/03/31 11:36:14;;;;;;;6.70;1.63;;;;;;;12.11;100.00;99218.44;4877157;29;20048;-72
2023/03/31 11:38:47;;;;;;;3.58;1.73;;;;;;;11.99;100.00;99218.38;4857773;29;20072;-72
2023/03/31 11:41:21;;;;;;;8.18;2.08;;;;;;;11.92;100.00;99214.53;4888722;29;20597;-72
2023/03/31 11:43:47;;;;;;;3.40;2.03;;;;;;;11.92;100.00;99217.19;4890082;29;20048;-72